Time;durP1;ratioP1;P1;durP2;ratioP2;P2;SDS_P1;SDS_P2;PMS_P1;PMS_P2;Temp;Humidity;BMP_temperature;BMP_pressure;BME280_temperature;BME280_humidity;BME280_pressure;Samples;Min_cycle;Max_cycle;Signal;HPM_P1;HPM_P2
2021/08/09 00:02:11;;;;;;;3.00;2.67;;;17.20;99.90;;;;;;9791103;30;20233;-82
2021/08/09 00:07:16;;;;;;;2.60;2.40;;;17.20;99.90;;;;;;9778063;30;20685;-81
2021/08/09 00:12:18;;;;;;;3.30;2.43;;;17.10;99.90;;;;;;9777845;30;20217;-83
2021/08/09 00:17:20;;;;;;;2.57;2.37;;;17.10;99.90;;;;;;9794499;30;20566;-81
2021/08/09 00:22:23;;;;;;;2.90;2.60;;;17.10;99.90;;;;;;9789522;30;20415;-81
2021/08/09 00:27:25;;;;;;;5.50;2.77;;;17.10;99.90;;;;;;9767674;30;20212;-82
2021/08/09 00:32:27;;;;;;;2.70;2.50;;;17.10;99.90;;;;;;9786907;30;20270;-81
2021/08/09 00:37:32;;;;;;;3.63;2.67;;;17.10;99.90;;;;;;9773875;30;20271;-80
2021/08/09 00:42:34;;;;;;;3.40;2.50;;;17.10;99.90;;;;;;9790731;30;20240;-82
2021/08/09 00:47:36;;;;;;;5.37;2.73;;;17.00;99.90;;;;;;9762006;30;20596;-80
2021/08/09 00:52:40;;;;;;;3.67;2.73;;;17.00;99.90;;;;;;9791601;30;20221;-82
2021/08/09 00:57:43;;;;;;;2.53;2.33;;;17.00;99.90;;;;;;9791657;30;20298;-81
2021/08/09 01:02:46;;;;;;;2.30;2.20;;;17.00;99.90;;;;;;9738178;30;20725;-81
2021/08/09 01:08:01;;;;;;;2.73;2.53;;;17.00;99.90;;;;;;9765378;30;20868;-82
2021/08/09 01:13:10;;;;;;;2.60;2.40;;;17.00;99.90;;;;;;9764271;30;20212;-82
2021/08/09 01:18:16;;;;;;;2.40;2.30;;;17.00;99.90;;;;;;9781136;30;20232;-82
2021/08/09 01:23:54;;;;;;;2.70;2.50;;;16.90;99.90;;;;;;9776744;30;20330;-81
2021/08/09 01:29:00;;;;;;;2.87;2.57;;;16.90;99.90;;;;;;9773783;30;20241;-81
2021/08/09 01:34:02;;;;;;;3.10;2.90;;;16.80;99.90;;;;;;9768171;30;20234;-82
2021/08/09 01:39:06;;;;;;;2.70;2.47;;;16.80;99.90;;;;;;9762353;30;20244;-82
2021/08/09 01:44:12;;;;;;;9.20;2.97;;;16.70;99.90;;;;;;9761677;30;20226;-80
2021/08/09 01:49:15;;;;;;;2.60;2.50;;;16.70;99.90;;;;;;9768445;30;20298;-80
2021/08/09 01:54:18;;;;;;;2.80;2.60;;;16.60;99.90;;;;;;9753602;30;20233;-81
2021/08/09 01:59:23;;;;;;;2.80;2.60;;;16.60;99.90;;;;;;9768298;30;20283;-81
2021/08/09 02:04:25;;;;;;;2.80;2.60;;;16.50;99.90;;;;;;9761027;30;20233;-82
2021/08/09 02:09:29;;;;;;;3.00;2.77;;;16.50;99.90;;;;;;9792018;30;20377;-80
2021/08/09 02:14:36;;;;;;;2.50;2.37;;;16.40;99.90;;;;;;9754072;30;20722;-82
2021/08/09 02:19:45;;;;;;;2.63;2.53;;;16.30;99.90;;;;;;9784813;30;20260;-81
2021/08/09 02:24:58;;;;;;;2.93;2.70;;;16.30;99.90;;;;;;9730543;30;20237;-81
2021/08/09 02:30:02;;;;;;;4.53;2.53;;;16.30;99.90;;;;;;9712198;30;20230;-81
2021/08/09 02:35:08;;;;;;;3.10;2.67;;;16.30;99.90;;;;;;9711962;30;20645;-81
2021/08/09 02:40:14;;;;;;;4.73;2.87;;;16.30;99.90;;;;;;9770104;30;20247;-81
2021/08/09 02:45:18;;;;;;;3.40;2.70;;;16.30;99.90;;;;;;9784816;30;20232;-80
2021/08/09 02:50:21;;;;;;;2.77;2.67;;;16.20;99.90;;;;;;9783728;30;20635;-80
2021/08/09 02:55:25;;;;;;;3.17;2.87;;;16.20;99.90;;;;;;9797593;30;20582;-81
2021/08/09 03:00:28;;;;;;;3.67;2.87;;;16.20;99.90;;;;;;9771669;30;20290;-82
2021/08/09 03:05:33;;;;;;;2.50;2.40;;;16.10;99.90;;;;;;9784837;30;20275;-82
2021/08/09 03:10:35;;;;;;;3.47;2.10;;;16.10;99.90;;;;;;9734196;30;20248;-82
2021/08/09 03:15:41;;;;;;;3.57;3.27;;;16.00;99.90;;;;;;9728001;30;20202;-82
2021/08/09 03:20:44;;;;;;;3.20;2.90;;;16.00;99.90;;;;;;9728725;30;20305;-81
2021/08/09 03:25:46;;;;;;;4.20;2.90;;;15.90;99.90;;;;;;9698391;30;20643;-81
2021/08/09 03:30:49;;;;;;;6.60;3.20;;;15.90;99.90;;;;;;9712776;30;20264;-82
2021/08/09 03:35:51;;;;;;;3.10;2.90;;;15.90;99.90;;;;;;9715480;30;20210;-82
2021/08/09 03:40:53;;;;;;;3.30;3.00;;;15.90;99.90;;;;;;9714274;30;20245;-82
2021/08/09 03:45:57;;;;;;;3.27;3.07;;;15.90;99.90;;;;;;9714820;30;20246;-82
2021/08/09 03:50:59;;;;;;;3.53;3.33;;;15.90;99.90;;;;;;9718668;30;20282;-80
2021/08/09 03:56:01;;;;;;;3.30;3.10;;;15.90;99.90;;;;;;9722227;30;20214;-80
2021/08/09 04:01:07;;;;;;;3.20;3.00;;;16.00;99.90;;;;;;9707747;30;20230;-81
2021/08/09 04:06:09;;;;;;;3.30;3.10;;;16.00;99.90;;;;;;9714208;30;20296;-80
2021/08/09 04:11:11;;;;;;;3.17;2.97;;;16.00;99.90;;;;;;9793547;30;20711;-82
2021/08/09 04:16:15;;;;;;;3.27;3.07;;;15.90;99.90;;;;;;9796670;30;20274;-80
2021/08/09 04:21:17;;;;;;;3.50;3.23;;;15.90;99.90;;;;;;9773111;30;20263;-80
2021/08/09 04:26:19;;;;;;;3.50;3.30;;;15.90;99.90;;;;;;9774320;30;20327;-80
2021/08/09 04:31:23;;;;;;;3.17;2.87;;;15.90;99.90;;;;;;9789593;30;20251;-80
2021/08/09 04:36:25;;;;;;;3.00;2.80;;;15.90;99.90;;;;;;9759395;30;20299;-82
2021/08/09 04:41:28;;;;;;;3.87;3.67;;;15.90;99.90;;;;;;9805685;30;20268;-81
2021/08/09 04:46:31;;;;;;;8.10;3.03;;;15.90;99.90;;;;;;9773172;30;20240;-81
2021/08/09 04:51:34;;;;;;;3.37;3.17;;;16.00;99.90;;;;;;9773196;30;20232;-81
2021/08/09 04:56:36;;;;;;;3.27;2.97;;;16.00;99.90;;;;;;9807577;30;20292;-81
2021/08/09 05:01:40;;;;;;;3.30;2.90;;;16.00;99.90;;;;;;9774872;30;20229;-81
2021/08/09 05:06:43;;;;;;;3.60;3.30;;;16.10;99.90;;;;;;9737497;30;20260;-81
2021/08/09 05:11:45;;;;;;;3.07;2.87;;;16.10;99.90;;;;;;9739809;30;20250;-82
2021/08/09 05:16:53;;;;;;;3.10;2.90;;;16.20;99.90;;;;;;9734626;30;20283;-82
2021/08/09 05:21:55;;;;;;;3.00;2.80;;;16.20;99.90;;;;;;9737574;30;20492;-81
2021/08/09 05:26:58;;;;;;;3.90;2.90;;;16.10;99.90;;;;;;9738043;30;20241;-82
2021/08/09 05:32:01;;;;;;;3.87;3.53;;;16.10;99.90;;;;;;9769093;25;20233;-82
2021/08/09 05:37:03;;;;;;;3.20;2.90;;;16.10;99.90;;;;;;9753616;30;20211;-82
2021/08/09 05:42:08;;;;;;;4.30;3.03;;;16.20;99.90;;;;;;9732865;30;20241;-81
2021/08/09 05:47:11;;;;;;;3.03;2.73;;;16.20;99.90;;;;;;9731693;30;20230;-82
2021/08/09 05:52:19;;;;;;;4.70;3.90;;;16.20;99.90;;;;;;9730635;30;20222;-82
2021/08/09 05:57:24;;;;;;;4.50;3.63;;;16.30;99.90;;;;;;9728295;30;20234;-82
2021/08/09 06:02:27;;;;;;;4.03;3.10;;;16.30;99.90;;;;;;9728582;30;20230;-82
2021/08/09 06:07:30;;;;;;;3.20;3.00;;;16.40;99.90;;;;;;9739854;30;20248;-81
2021/08/09 06:12:39;;;;;;;4.70;3.40;;;16.40;99.90;;;;;;9689563;30;20327;-81
2021/08/09 06:17:43;;;;;;;3.90;3.60;;;16.50;99.90;;;;;;9675846;30;20217;-81
2021/08/09 06:22:45;;;;;;;3.20;2.97;;;16.60;99.90;;;;;;9677464;30;20211;-81
2021/08/09 06:27:49;;;;;;;3.20;3.00;;;16.70;99.90;;;;;;9686253;30;20249;-82
2021/08/09 06:32:53;;;;;;;4.27;3.07;;;16.70;99.90;;;;;;9708340;30;20241;-82
2021/08/09 06:37:58;;;;;;;3.43;2.77;;;16.80;99.90;;;;;;9703687;30;20206;-82
2021/08/09 06:43:02;;;;;;;3.43;3.10;;;16.90;99.90;;;;;;9717872;30;20210;-82
2021/08/09 06:48:10;;;;;;;7.90;2.63;;;17.00;99.90;;;;;;9715546;30;20238;-81
2021/08/09 06:53:14;;;;;;;3.03;2.83;;;17.10;99.90;;;;;;9724336;30;20210;-81
2021/08/09 06:58:21;;;;;;;3.53;3.23;;;17.20;99.90;;;;;;9724014;30;20726;-81
2021/08/09 07:03:26;;;;;;;5.00;2.90;;;17.30;99.90;;;;;;9728088;30;20213;-81
2021/08/09 07:08:29;;;;;;;3.03;2.73;;;17.40;99.90;;;;;;9715301;30;20304;-82
2021/08/09 07:13:32;;;;;;;3.00;2.60;;;17.60;99.90;;;;;;9714118;30;20672;-82
2021/08/09 07:18:36;;;;;;;3.60;2.80;;;17.70;99.90;;;;;;9727476;30;20276;-81
2021/08/09 07:23:42;;;;;;;2.80;2.60;;;17.90;99.90;;;;;;9712366;30;20742;-82
2021/08/09 07:28:45;;;;;;;3.27;2.97;;;18.00;99.90;;;;;;9736484;30;20293;-82
2021/08/09 07:33:48;;;;;;;5.03;2.80;;;18.30;99.90;;;;;;9739423;30;20209;-82
2021/08/09 07:38:51;;;;;;;3.33;2.40;;;18.60;99.90;;;;;;9739802;30;20237;-82
2021/08/09 07:43:53;;;;;;;2.40;2.20;;;19.00;99.90;;;;;;9757646;30;20578;-83
2021/08/09 07:48:57;;;;;;;2.80;1.80;;;19.40;99.90;;;;;;9738624;30;20833;-81
2021/08/09 07:54:00;;;;;;;3.43;2.90;;;19.70;99.90;;;;;;9766278;30;20209;-81
2021/08/09 07:59:03;;;;;;;2.57;2.37;;;20.00;99.90;;;;;;9766373;30;20229;-82
2021/08/09 08:04:08;;;;;;;1.70;1.60;;;20.40;99.90;;;;;;9751563;30;20677;-82
2021/08/09 08:09:10;;;;;;;2.23;2.03;;;20.70;99.90;;;;;;9751952;30;20715;-81
2021/08/09 08:14:12;;;;;;;2.57;2.37;;;21.00;99.90;;;;;;9737423;30;20267;-81
2021/08/09 08:19:16;;;;;;;2.30;2.20;;;21.30;99.90;;;;;;9752899;30;20229;-82
2021/08/09 08:24:18;;;;;;;2.40;2.20;;;21.50;99.90;;;;;;9752084;30;20691;-81
2021/08/09 08:29:22;;;;;;;2.83;2.40;;;21.60;99.90;;;;;;9759376;30;20695;-82
2021/08/09 08:34:25;;;;;;;2.87;2.50;;;21.80;99.90;;;;;;9774648;30;20210;-82
2021/08/09 08:39:29;;;;;;;3.10;2.63;;;22.20;99.90;;;;;;9752765;30;20241;-82
2021/08/09 08:44:31;;;;;;;2.23;2.10;;;22.70;99.90;;;;;;9744790;30;20305;-82
2021/08/09 08:49:36;;;;;;;2.83;2.63;;;23.00;99.90;;;;;;9745199;30;20293;-82
2021/08/09 08:54:40;;;;;;;2.33;2.13;;;23.50;99.90;;;;;;9742403;30;20210;-83
2021/08/09 08:59:42;;;;;;;2.20;2.10;;;23.90;99.90;;;;;;9743832;30;20252;-82
2021/08/09 09:04:48;;;;;;;2.33;2.23;;;24.00;98.40;;;;;;9742548;30;20606;-82
2021/08/09 09:09:50;;;;;;;2.47;2.27;;;24.10;96.20;;;;;;9756506;30;20251;-82
2021/08/09 09:15:01;;;;;;;2.20;1.47;;;23.90;96.20;;;;;;9765497;30;20214;-82
2021/08/09 09:20:23;;;;;;;2.10;2.00;;;23.70;96.50;;;;;;9749267;30;20229;-82
2021/08/09 09:25:33;;;;;;;3.83;2.20;;;23.70;96.00;;;;;;9779698;30;20651;-82
2021/08/09 09:30:35;;;;;;;2.07;1.97;;;24.20;95.30;;;;;;9781482;30;20288;-82
2021/08/09 09:35:39;;;;;;;6.57;2.40;;;24.70;93.10;;;;;;9780737;30;20277;-82
2021/08/09 09:40:42;;;;;;;2.53;2.33;;;25.20;95.20;;;;;;9759404;30;20272;-83
2021/08/09 09:45:53;;;;;;;1.80;1.70;;;25.60;93.00;;;;;;9730145;30;20240;-82
2021/08/09 09:51:09;;;;;;;2.63;2.30;;;25.80;91.40;;;;;;9747042;30;20226;-83
2021/08/09 09:56:11;;;;;;;1.57;1.37;;;26.00;89.50;;;;;;9754167;30;20208;-82
2021/08/09 10:01:13;;;;;;;2.03;1.83;;;26.00;86.80;;;;;;9738293;30;20229;-82
2021/08/09 10:06:18;;;;;;;3.57;2.10;;;26.20;85.50;;;;;;9743060;30;20733;-82
2021/08/09 10:11:22;;;;;;;1.93;1.83;;;26.50;84.20;;;;;;9765096;30;20267;-82
2021/08/09 10:16:32;;;;;;;2.17;2.07;;;26.70;83.90;;;;;;9782836;30;20210;-82
2021/08/09 10:21:37;;;;;;;3.30;2.70;;;26.90;85.10;;;;;;9785031;30;20225;-82
2021/08/09 10:26:47;;;;;;;2.30;2.20;;;26.90;81.70;;;;;;9790033;30;20308;-82
2021/08/09 10:31:51;;;;;;;2.23;2.07;;;26.40;81.20;;;;;;9786358;30;20248;-82
2021/08/09 10:37:13;;;;;;;2.20;2.10;;;25.90;85.20;;;;;;9752353;30;20722;-82
2021/08/09 10:42:27;;;;;;;2.03;1.93;;;25.50;84.50;;;;;;9772200;30;20233;-82
2021/08/09 10:47:52;;;;;;;3.20;2.60;;;25.30;87.30;;;;;;9765247;30;20269;-82
2021/08/09 10:52:56;;;;;;;2.20;2.10;;;25.10;89.10;;;;;;9762990;30;20594;-81
2021/08/09 10:57:58;;;;;;;2.57;2.37;;;25.20;90.30;;;;;;9742344;30;20210;-82
2021/08/09 11:03:05;;;;;;;2.40;2.20;;;25.20;83.90;;;;;;9728228;30;20589;-81
2021/08/09 11:08:39;;;;;;;2.93;2.50;;;25.20;84.70;;;;;;9761258;30;20237;-81
2021/08/09 11:14:16;;;;;;;3.67;2.60;;;25.20;90.20;;;;;;9730088;30;20219;-81
2021/08/09 11:19:23;;;;;;;2.73;2.63;;;25.20;91.40;;;;;;9738619;30;20245;-81
2021/08/09 11:24:34;;;;;;;2.50;2.40;;;25.20;89.40;;;;;;9761550;30;20679;-81
2021/08/09 11:29:52;;;;;;;2.93;2.40;;;25.10;90.30;;;;;;9753318;30;20279;-81
2021/08/09 11:35:00;;;;;;;2.63;2.43;;;25.00;90.80;;;;;;9725750;30;20236;-82
2021/08/09 11:40:05;;;;;;;2.80;2.60;;;24.80;90.60;;;;;;9755693;30;20221;-82
2021/08/09 11:45:22;;;;;;;2.00;1.80;;;24.70;93.20;;;;;;9755621;30;20273;-82
2021/08/09 11:50:25;;;;;;;1.57;1.47;;;24.40;85.50;;;;;;9713171;30;20681;-81
2021/08/09 11:55:29;;;;;;;5.00;3.30;;;24.20;91.30;;;;;;9748737;30;20675;-82
2021/08/09 12:00:39;;;;;;;3.60;3.30;;;23.90;92.20;;;;;;9754760;30;20244;-82
2021/08/09 12:05:41;;;;;;;3.43;2.77;;;23.80;89.40;;;;;;9752931;30;20685;-82
2021/08/09 12:10:44;;;;;;;3.70;2.43;;;23.90;89.10;;;;;;9770386;30;20240;-82
2021/08/09 12:15:47;;;;;;;2.60;2.40;;;23.90;89.00;;;;;;9719412;30;20691;-81
2021/08/09 12:21:08;;;;;;;2.83;2.53;;;23.80;93.50;;;;;;9725422;30;20250;-81
2021/08/09 12:26:26;;;;;;;4.70;2.60;;;23.70;92.20;;;;;;9771013;30;20249;-81
2021/08/09 12:31:33;;;;;;;2.30;2.20;;;23.50;93.10;;;;;;9767547;30;20332;-81
2021/08/09 12:36:37;;;;;;;1.87;1.77;;;23.30;90.60;;;;;;9778149;30;20216;-81
2021/08/09 12:41:40;;;;;;;2.80;2.50;;;23.20;91.20;;;;;;9773985;30;20238;-81
2021/08/09 12:46:42;;;;;;;2.43;2.23;;;23.20;90.90;;;;;;9759825;30;20233;-82
2021/08/09 12:51:44;;;;;;;2.93;2.73;;;23.30;91.40;;;;;;9777239;30;20233;-82
2021/08/09 12:56:48;;;;;;;4.63;3.30;;;23.50;88.40;;;;;;9773646;30;20216;-82
2021/08/09 13:01:50;;;;;;;10.13;4.80;;;23.70;90.60;;;;;;9763416;30;20238;-82
2021/08/09 13:06:52;;;;;;;2.77;2.17;;;23.70;91.00;;;;;;9759118;30;20230;-82
2021/08/09 13:11:56;;;;;;;6.00;3.13;;;23.70;90.20;;;;;;9748860;30;20230;-82
2021/08/09 13:17:00;;;;;;;2.97;2.67;;;23.80;85.80;;;;;;9760886;30;20206;-82
2021/08/09 13:22:02;;;;;;;5.10;2.67;;;24.00;87.80;;;;;;9752605;30;20269;-82
2021/08/09 13:27:06;;;;;;;3.97;3.27;;;24.00;91.50;;;;;;9714501;30;20333;-82
2021/08/09 13:32:09;;;;;;;3.00;2.80;;;24.00;91.70;;;;;;9745411;30;20244;-82
2021/08/09 13:37:12;;;;;;;3.20;3.00;;;23.90;93.50;;;;;;9742335;30;20210;-82
2021/08/09 13:42:16;;;;;;;4.87;2.93;;;23.90;93.70;;;;;;9761469;30;20501;-81
2021/08/09 13:47:20;;;;;;;2.87;2.67;;;24.00;92.50;;;;;;9729786;30;20237;-82
2021/08/09 13:52:22;;;;;;;4.80;3.20;;;24.00;91.10;;;;;;9748061;30;20234;-81
2021/08/09 13:57:25;;;;;;;4.20;2.30;;;23.90;92.40;;;;;;9731886;30;20720;-81
2021/08/09 14:02:27;;;;;;;2.07;1.93;;;23.80;90.20;;;;;;9735846;30;20229;-81
2021/08/09 14:07:29;;;;;;;2.80;2.70;;;23.70;89.10;;;;;;9736461;30;20719;-82
2021/08/09 14:12:33;;;;;;;2.63;2.43;;;23.60;88.30;;;;;;9733173;30;20237;-81
2021/08/09 14:17:35;;;;;;;4.77;2.43;;;23.60;89.80;;;;;;9759272;30;20590;-81
2021/08/09 14:22:38;;;;;;;3.10;2.90;;;23.50;93.10;;;;;;9726469;30;20316;-81
2021/08/09 14:27:43;;;;;;;2.50;2.40;;;23.40;92.90;;;;;;9724663;30;20257;-82
2021/08/09 14:32:45;;;;;;;2.90;2.70;;;23.30;93.40;;;;;;9710021;30;20563;-82
2021/08/09 14:37:49;;;;;;;3.20;2.80;;;23.30;90.00;;;;;;9724372;30;20217;-82
2021/08/09 14:42:53;;;;;;;2.63;2.43;;;23.40;91.30;;;;;;9738733;30;20228;-82
2021/08/09 14:47:56;;;;;;;2.83;2.63;;;23.40;91.60;;;;;;9711498;30;20265;-82
2021/08/09 14:52:58;;;;;;;4.37;2.83;;;23.50;91.20;;;;;;9718930;30;20210;-82
2021/08/09 14:58:04;;;;;;;2.53;2.33;;;23.50;85.30;;;;;;9724555;30;21845;-82
2021/08/09 15:03:07;;;;;;;3.00;2.80;;;23.60;90.40;;;;;;9725110;30;20230;-82
2021/08/09 15:08:23;;;;;;;3.10;2.90;;;23.60;90.60;;;;;;9713941;30;20319;-82
2021/08/09 15:13:27;;;;;;;4.93;3.07;;;23.50;83.10;;;;;;9761045;30;20216;-82
2021/08/09 15:18:35;;;;;;;2.87;2.67;;;23.50;82.60;;;;;;9746073;30;20233;-82
2021/08/09 15:23:38;;;;;;;2.83;2.73;;;23.50;86.40;;;;;;9714986;30;20218;-82
2021/08/09 15:28:42;;;;;;;2.70;2.53;;;23.40;84.40;;;;;;9725942;30;20248;-82
2021/08/09 15:33:44;;;;;;;2.73;2.57;;;23.40;85.70;;;;;;9724947;30;20294;-82
2021/08/09 15:38:46;;;;;;;2.53;2.33;;;23.40;82.30;;;;;;9716517;30;20312;-81
2021/08/09 15:43:50;;;;;;;3.20;2.60;;;23.30;79.90;;;;;;9752546;30;20745;-81
2021/08/09 15:48:52;;;;;;;2.50;2.30;;;23.30;89.20;;;;;;9759310;30;20657;-81
2021/08/09 15:53:56;;;;;;;2.80;2.60;;;23.10;83.40;;;;;;9746943;30;20205;-80
2021/08/09 15:58:59;;;;;;;2.93;2.73;;;23.10;82.70;;;;;;9768548;30;20232;-80
2021/08/09 16:04:01;;;;;;;2.23;2.13;;;23.10;81.00;;;;;;9766743;30;20213;-80
2021/08/09 16:09:03;;;;;;;2.80;2.60;;;23.10;84.70;;;;;;9742664;30;20307;-81
2021/08/09 16:14:07;;;;;;;3.00;2.80;;;23.10;81.60;;;;;;9734673;30;20213;-81
2021/08/09 16:19:09;;;;;;;3.17;2.93;;;23.10;84.00;;;;;;9754730;30;20229;-80
2021/08/09 16:24:11;;;;;;;2.53;2.43;;;23.00;81.30;;;;;;9742436;30;20692;-81
2021/08/09 16:29:15;;;;;;;2.40;2.30;;;23.00;74.50;;;;;;9730726;30;20238;-81
2021/08/09 16:34:17;;;;;;;3.17;2.83;;;23.00;70.10;;;;;;9739718;30;20218;-81
2021/08/09 16:39:19;;;;;;;2.63;2.43;;;23.00;69.90;;;;;;9742239;30;20237;-80
2021/08/09 16:44:23;;;;;;;3.60;2.90;;;23.00;77.50;;;;;;9749818;30;20213;-81
2021/08/09 16:49:25;;;;;;;2.60;2.33;;;22.90;79.30;;;;;;9749306;30;20698;-80
2021/08/09 16:54:27;;;;;;;2.80;2.60;;;22.80;80.30;;;;;;9764954;30;20240;-80
2021/08/09 16:59:32;;;;;;;2.43;2.20;;;22.70;70.00;;;;;;9738646;30;20260;-81
2021/08/09 17:04:34;;;;;;;2.63;2.50;;;22.70;73.80;;;;;;9714028;30;20210;-82
2021/08/09 17:09:36;;;;;;;3.03;2.80;;;22.70;78.30;;;;;;9727063;30;20256;-81
2021/08/09 17:14:40;;;;;;;2.73;2.53;;;22.60;80.10;;;;;;9743157;30;20579;-81
2021/08/09 17:19:42;;;;;;;2.83;2.63;;;22.50;85.00;;;;;;9736183;30;20233;-81
2021/08/09 17:24:44;;;;;;;3.70;3.03;;;22.40;79.20;;;;;;9750599;30;20307;-81
2021/08/09 17:29:48;;;;;;;2.53;2.43;;;22.30;79.60;;;;;;9752979;25;20235;-82
2021/08/09 17:34:50;;;;;;;2.70;2.50;;;22.30;85.90;;;;;;9705577;30;20302;-81
2021/08/09 17:39:53;;;;;;;2.90;2.70;;;22.20;79.70;;;;;;9718026;30;20730;-82
2021/08/09 17:44:56;;;;;;;2.70;2.60;;;22.20;81.80;;;;;;9692009;30;20211;-82
2021/08/09 17:49:59;;;;;;;2.50;2.30;;;22.20;83.10;;;;;;9676894;30;20302;-81
2021/08/09 17:55:01;;;;;;;2.97;2.77;;;22.20;83.50;;;;;;9704292;30;20670;-81
2021/08/09 18:00:05;;;;;;;2.90;2.70;;;22.10;83.10;;;;;;9715619;30;20289;-81
2021/08/09 18:05:14;;;;;;;2.87;2.57;;;22.10;85.20;;;;;;9717618;30;20693;-81
2021/08/09 18:10:16;;;;;;;5.57;2.67;;;22.10;84.70;;;;;;9683770;30;20244;-81
2021/08/09 18:15:20;;;;;;;2.70;2.50;;;22.00;87.50;;;;;;9708007;30;20662;-81
2021/08/09 18:20:23;;;;;;;3.37;3.07;;;22.00;89.00;;;;;;9726390;30;20304;-81
2021/08/09 18:25:25;;;;;;;2.50;2.30;;;21.90;90.20;;;;;;9707744;30;20732;-82
2021/08/09 18:30:28;;;;;;;3.47;2.77;;;21.80;91.40;;;;;;9706642;30;20322;-82
2021/08/09 18:35:34;;;;;;;7.37;2.80;;;21.70;91.60;;;;;;9705509;30;20224;-82
2021/08/09 18:40:36;;;;;;;2.23;2.13;;;21.60;90.80;;;;;;9707124;30;20231;-82
2021/08/09 18:45:39;;;;;;;5.00;3.23;;;21.50;90.90;;;;;;9684468;30;20711;-82
2021/08/09 18:50:41;;;;;;;3.20;3.00;;;21.30;92.00;;;;;;9682481;30;20747;-82
2021/08/09 18:55:43;;;;;;;4.13;2.70;;;21.30;92.00;;;;;;9696424;30;20226;-83
2021/08/09 19:00:47;;;;;;;3.03;2.83;;;21.20;92.60;;;;;;9695969;30;20292;-83
2021/08/09 19:05:51;;;;;;;3.20;2.90;;;21.10;93.10;;;;;;9693663;30;20579;-83
2021/08/09 19:10:54;;;;;;;3.00;2.70;;;21.00;92.70;;;;;;9713516;30;20261;-83
2021/08/09 19:15:58;;;;;;;2.90;2.80;;;20.90;91.60;;;;;;9726950;30;20285;-83
2021/08/09 19:21:00;;;;;;;4.33;3.50;;;20.90;91.40;;;;;;9679592;30;20247;-83
2021/08/09 19:26:02;;;;;;;3.80;3.20;;;20.70;91.40;;;;;;9690818;30;20554;-82
2021/08/09 19:31:08;;;;;;;2.60;2.50;;;20.60;92.30;;;;;;9675765;30;20246;-82
2021/08/09 19:36:13;;;;;;;3.20;2.90;;;20.50;92.30;;;;;;9685980;30;20388;-82
2021/08/09 19:41:15;;;;;;;2.97;2.77;;;20.30;92.70;;;;;;9681314;30;20238;-82
2021/08/09 19:46:22;;;;;;;4.87;2.87;;;20.20;91.90;;;;;;9699188;30;20218;-83
2021/08/09 19:51:24;;;;;;;3.03;2.63;;;20.20;93.40;;;;;;9701256;30;20324;-84
2021/08/09 19:56:26;;;;;;;3.13;2.83;;;20.10;94.90;;;;;;9700695;30;20716;-83
2021/08/09 20:01:30;;;;;;;2.53;2.33;;;20.00;95.20;;;;;;9700263;30;20616;-83
2021/08/09 20:06:32;;;;;;;5.50;2.70;;;20.00;96.00;;;;;;9699116;30;20579;-83
2021/08/09 20:11:34;;;;;;;3.57;2.80;;;20.00;95.10;;;;;;9701170;30;20831;-83
2021/08/09 20:16:38;;;;;;;3.83;2.43;;;20.00;95.10;;;;;;9714443;30;20210;-82
2021/08/09 20:21:43;;;;;;;5.03;2.37;;;19.90;95.30;;;;;;9716409;30;20276;-83
2021/08/09 20:26:45;;;;;;;2.50;2.30;;;20.00;96.40;;;;;;9702530;30;20683;-83
2021/08/09 20:31:49;;;;;;;3.20;3.00;;;20.00;95.60;;;;;;9703529;30;20241;-83
2021/08/09 20:36:51;;;;;;;3.40;2.53;;;20.00;95.90;;;;;;9704225;30;20217;-83
2021/08/09 20:41:54;;;;;;;3.27;2.97;;;20.00;97.40;;;;;;9718918;30;20269;-83
2021/08/09 20:46:57;;;;;;;3.10;2.87;;;20.00;96.50;;;;;;9690714;30;20320;-83
2021/08/09 20:51:59;;;;;;;2.70;2.50;;;20.00;97.10;;;;;;9727789;30;20234;-83
2021/08/09 20:57:01;;;;;;;3.20;2.80;;;19.90;97.30;;;;;;9733615;30;20206;-83
2021/08/09 21:02:05;;;;;;;3.63;2.80;;;19.90;97.20;;;;;;9729547;30;20264;-83
2021/08/09 21:07:07;;;;;;;3.37;2.80;;;19.90;97.10;;;;;;9707323;30;20230;-83
2021/08/09 21:12:09;;;;;;;3.90;3.50;;;19.90;98.30;;;;;;9707553;30;20239;-83
2021/08/09 21:17:13;;;;;;;3.20;3.00;;;19.80;97.30;;;;;;9720193;30;20299;-83
2021/08/09 21:22:15;;;;;;;3.53;3.30;;;19.80;97.90;;;;;;9737306;30;20240;-83
2021/08/09 21:27:18;;;;;;;3.50;2.90;;;19.70;99.30;;;;;;9738188;30;20322;-83
2021/08/09 21:32:21;;;;;;;3.70;3.00;;;19.60;99.50;;;;;;9739158;30;20280;-83
2021/08/09 21:37:23;;;;;;;3.60;3.10;;;19.60;99.20;;;;;;9723720;30;20611;-83
2021/08/09 21:42:26;;;;;;;2.73;2.53;;;19.50;99.50;;;;;;9684986;30;20276;-83
2021/08/09 21:47:29;;;;;;;2.93;2.70;;;19.50;99.90;;;;;;9681209;30;20628;-83
2021/08/09 21:52:32;;;;;;;3.47;3.27;;;19.40;99.20;;;;;;9695058;30;20243;-83
2021/08/09 21:57:34;;;;;;;3.23;3.00;;;19.30;99.80;;;;;;9669389;30;20234;-83
2021/08/09 22:02:37;;;;;;;3.03;2.80;;;19.20;99.90;;;;;;9677604;30;20242;-83
2021/08/09 22:07:39;;;;;;;3.20;2.90;;;19.20;99.90;;;;;;9680288;30;20258;-83
2021/08/09 22:12:41;;;;;;;3.47;3.10;;;19.10;99.70;;;;;;9694963;30;20235;-83
2021/08/09 22:17:45;;;;;;;4.50;3.20;;;19.00;99.90;;;;;;9674616;30;20259;-83
2021/08/09 22:22:48;;;;;;;3.83;3.50;;;19.00;99.90;;;;;;9669001;30;20317;-83
2021/08/09 22:27:51;;;;;;;4.10;3.17;;;18.90;99.70;;;;;;9664263;30;20230;-83
2021/08/09 22:32:54;;;;;;;3.80;3.50;;;18.90;99.90;;;;;;9679707;30;20329;-83
2021/08/09 22:37:56;;;;;;;3.67;3.37;;;18.80;99.90;;;;;;9682180;30;20222;-83
2021/08/09 22:42:58;;;;;;;4.63;3.00;;;18.80;99.90;;;;;;9680749;30;20245;-83
2021/08/09 22:48:02;;;;;;;3.40;3.20;;;18.70;99.90;;;;;;9712692;30;20252;-83
2021/08/09 22:53:04;;;;;;;3.90;3.40;;;18.70;99.90;;;;;;9716481;30;20254;-83
2021/08/09 22:58:06;;;;;;;3.53;3.23;;;18.60;99.90;;;;;;9713400;30;20198;-83
2021/08/09 23:03:10;;;;;;;4.13;3.50;;;18.60;99.90;;;;;;9711524;30;20238;-83
2021/08/09 23:08:12;;;;;;;3.13;2.93;;;18.60;99.90;;;;;;9699489;30;20329;-82
2021/08/09 23:13:14;;;;;;;4.30;3.03;;;18.60;99.90;;;;;;9713736;30;20234;-83
2021/08/09 23:18:18;;;;;;;3.20;2.80;;;18.50;99.90;;;;;;9727441;30;20296;-82
2021/08/09 23:23:20;;;;;;;3.30;3.10;;;18.40;99.90;;;;;;9730811;30;20763;-83
2021/08/09 23:28:22;;;;;;;3.83;3.23;;;18.40;99.90;;;;;;9713811;30;20252;-83
2021/08/09 23:33:26;;;;;;;3.07;2.87;;;18.30;99.90;;;;;;9703551;25;20295;-82
2021/08/09 23:38:28;;;;;;;3.23;2.90;;;18.20;99.90;;;;;;9714253;30;20214;-82
2021/08/09 23:43:30;;;;;;;2.83;2.63;;;18.20;99.90;;;;;;9690353;30;20226;-82
2021/08/09 23:48:34;;;;;;;3.27;2.80;;;18.10;99.90;;;;;;9692758;30;20313;-82
2021/08/09 23:53:36;;;;;;;3.20;2.90;;;18.10;99.90;;;;;;9676859;30;20229;-81
2021/08/09 23:58:40;;;;;;;3.57;3.27;;;18.00;99.90;;;;;;9693508;30;20199;-82
